KSEE/SEE METAR and TAF weather

Enter ICAO airport designator
Station Type Date Time Source
KSEE METAR 2020/07/09 23:47 UTC NOAA

KSEE 092347Z 22006KT 10SM SKC 28/14 A2988


Station Type Date Time Source
KSEE Decoded METAR 2020/07/09 23:47 UTC NOAA

San Diego/El Cajon, Gillespie Field Airport, CA, United States (KSEE) 32-49-34N 116-58-20W
Jul 09, 2020 - 07:47 PM EDT / 2020.07.09 2347 UTC
Wind: from the SW (220 degrees) at 7 MPH (6 KT):0
Visibility: 10 mile(s):0
Sky conditions: clear
Temperature: 82 F (28 C)
Dew Point: 57 F (14 C)
Relative Humidity: 42%
Pressure (altimeter): 29.88 in. Hg (1011 hPa)
ob: KSEE 092347Z 22006KT 10SM SKC 28/14 A2988
cycle: 0

Station Type Date Time Source
KSEE TAF UTC NOAA

Error!

Example: see airport list